createdAt,value
2017-09-21T00:00:27.347Z,9.30
2017-09-21T00:02:55.250Z,9.20
2017-09-21T00:05:22.728Z,9.30
2017-09-21T00:07:50.223Z,9.30
2017-09-21T00:10:18.162Z,9.30
2017-09-21T00:12:46.596Z,9.40
2017-09-21T00:15:14.644Z,9.30
2017-09-21T00:17:42.547Z,9.20
2017-09-21T00:20:10.987Z,9.20
2017-09-21T00:22:38.916Z,9.10
2017-09-21T00:25:06.428Z,9.10
2017-09-21T00:27:33.918Z,9.10
2017-09-21T00:30:01.430Z,9.10
2017-09-21T00:32:29.334Z,9.00
2017-09-21T00:34:58.482Z,9.00
2017-09-21T00:37:26.412Z,9.00
2017-09-21T00:39:53.923Z,9.10
2017-09-21T00:42:22.420Z,9.00
2017-09-21T00:44:49.968Z,9.00
2017-09-21T00:47:17.488Z,9.00
2017-09-21T00:49:44.995Z,9.00
2017-09-21T00:52:12.507Z,9.00
2017-09-21T00:54:40.414Z,8.90
2017-09-21T00:57:07.946Z,8.90
2017-09-21T00:59:35.843Z,8.80
2017-09-21T01:02:03.363Z,8.80
2017-09-21T01:04:30.876Z,8.80
2017-09-21T01:06:58.366Z,8.80
2017-09-21T01:09:25.884Z,8.80
2017-09-21T01:11:53.398Z,8.80
2017-09-21T01:14:21.283Z,8.80
2017-09-21T01:16:48.819Z,8.80
2017-09-21T01:19:16.702Z,8.80
2017-09-21T01:21:44.624Z,8.70
2017-09-21T01:24:12.140Z,8.80
2017-09-21T01:26:40.450Z,8.70
2017-09-21T01:29:07.967Z,8.60
2017-09-21T01:31:35.555Z,8.60
2017-09-21T01:34:04.037Z,8.60
2017-09-21T01:36:31.566Z,8.50
2017-09-21T01:38:59.100Z,8.50
2017-09-21T01:41:26.610Z,8.50
2017-09-21T01:43:54.107Z,8.50
2017-09-21T01:46:21.596Z,8.40
2017-09-21T01:48:49.119Z,8.40
2017-09-21T01:51:16.618Z,8.40
2017-09-21T01:53:44.100Z,8.30
2017-09-21T01:56:11.606Z,8.20
2017-09-21T01:58:39.503Z,8.20
2017-09-21T02:01:13.277Z,8.20
2017-09-21T02:03:41.153Z,8.10
2017-09-21T02:06:09.054Z,8.10
2017-09-21T02:08:36.550Z,8.10
2017-09-21T02:11:04.037Z,8.10
2017-09-21T02:13:31.573Z,8.10
2017-09-21T02:15:59.078Z,8.10
2017-09-21T02:18:26.595Z,8.00
2017-09-21T02:20:54.757Z,7.90
2017-09-21T02:23:22.238Z,7.90
2017-09-21T02:25:50.106Z,7.90
2017-09-21T02:28:18.013Z,7.90
2017-09-21T02:30:46.294Z,7.90
2017-09-21T02:33:13.798Z,7.90
2017-09-21T02:35:41.309Z,7.90
2017-09-21T02:38:08.812Z,7.90
2017-09-21T02:40:37.106Z,7.80
2017-09-21T02:43:05.563Z,7.70
2017-09-21T02:45:34.028Z,7.70
2017-09-21T02:48:01.546Z,7.70
2017-09-21T02:50:29.034Z,7.70
2017-09-21T02:52:56.555Z,7.70
2017-09-21T02:55:24.067Z,7.80
2017-09-21T02:57:52.551Z,7.80
2017-09-21T03:00:20.453Z,7.80
2017-09-21T03:02:47.938Z,7.80
2017-09-21T03:05:15.447Z,7.90
2017-09-21T03:07:43.361Z,7.90
2017-09-21T03:10:11.278Z,7.90
2017-09-21T03:12:40.108Z,7.90
2017-09-21T03:15:08.270Z,7.90
2017-09-21T03:17:35.755Z,7.90
2017-09-21T03:20:03.269Z,7.90
2017-09-21T03:22:31.471Z,7.80
2017-09-21T03:25:00.188Z,7.80
2017-09-21T03:27:27.710Z,7.80
2017-09-21T03:29:55.204Z,7.90
2017-09-21T03:32:23.594Z,7.90
2017-09-21T03:34:51.506Z,7.90
2017-09-21T03:37:19.009Z,7.90
2017-09-21T03:39:47.237Z,7.90
2017-09-21T03:42:14.755Z,7.90
2017-09-21T03:44:42.691Z,8.00
2017-09-21T03:47:10.178Z,8.00
2017-09-21T03:49:39.527Z,8.10
2017-09-21T03:52:07.055Z,8.10
2017-09-21T03:54:34.545Z,8.00
2017-09-21T03:57:02.025Z,8.10
2017-09-21T03:59:29.538Z,8.10
2017-09-21T04:01:59.008Z,8.10
2017-09-21T04:04:26.555Z,8.20
2017-09-21T04:06:54.045Z,8.20
2017-09-21T04:09:21.930Z,8.40
2017-09-21T04:11:51.005Z,8.40
2017-09-21T04:14:18.518Z,8.40
2017-09-21T04:16:45.995Z,8.50
2017-09-21T04:19:13.497Z,8.70
2017-09-21T04:21:40.982Z,8.70
2017-09-21T04:24:08.508Z,8.80
2017-09-21T04:26:36.021Z,8.80
2017-09-21T04:29:03.495Z,8.70
2017-09-21T04:31:32.037Z,8.60
2017-09-21T04:33:59.516Z,8.60
2017-09-21T04:36:27.019Z,8.80
2017-09-21T04:38:54.522Z,8.90
2017-09-21T04:41:23.024Z,9.00
2017-09-21T04:43:50.902Z,8.90
2017-09-21T04:46:18.805Z,8.90
2017-09-21T04:48:46.281Z,8.90
2017-09-21T04:51:15.749Z,9.10
2017-09-21T04:53:43.230Z,9.00
2017-09-21T04:56:10.730Z,8.90
2017-09-21T04:58:38.630Z,8.80
2017-09-21T05:01:06.110Z,8.80
2017-09-21T05:03:33.617Z,9.00
2017-09-21T05:06:01.542Z,9.00
2017-09-21T05:08:29.643Z,9.00
2017-09-21T05:10:57.537Z,9.10
2017-09-21T05:13:25.037Z,9.10
2017-09-21T05:15:54.456Z,8.90
2017-09-21T05:18:21.937Z,9.00
2017-09-21T05:20:49.865Z,8.80
2017-09-21T05:23:17.337Z,8.80
2017-09-21T05:25:45.479Z,9.00
2017-09-21T05:28:13.629Z,9.10
2017-09-21T05:30:41.130Z,9.10
2017-09-21T05:33:08.619Z,9.10
2017-09-21T05:35:38.395Z,9.00
2017-09-21T05:38:05.897Z,9.00
2017-09-21T05:40:33.788Z,8.90
2017-09-21T05:43:01.270Z,8.90
2017-09-21T05:45:28.812Z,9.00
2017-09-21T05:47:56.310Z,8.90
2017-09-21T05:50:23.790Z,8.80
2017-09-21T05:52:51.690Z,8.90
2017-09-21T05:55:19.215Z,8.90
2017-09-21T05:57:47.089Z,8.90
2017-09-21T06:00:14.594Z,8.90
2017-09-21T06:02:43.031Z,9.00
2017-09-21T06:05:10.534Z,9.00
2017-09-21T06:07:38.066Z,9.00
2017-09-21T06:10:05.542Z,9.00
2017-09-21T06:12:33.047Z,9.00
2017-09-21T06:15:00.950Z,9.10
2017-09-21T06:17:28.433Z,9.10
2017-09-21T06:19:55.951Z,9.10
2017-09-21T06:22:24.375Z,9.10
2017-09-21T06:24:51.903Z,9.10
2017-09-21T06:27:19.409Z,9.10
2017-09-21T06:29:46.903Z,9.00
2017-09-21T06:32:14.795Z,9.10
2017-09-21T06:34:42.287Z,9.10
2017-09-21T06:37:09.770Z,9.20
2017-09-21T06:39:37.277Z,9.20
2017-09-21T06:42:04.759Z,9.30
2017-09-21T06:44:32.270Z,9.30
2017-09-21T06:47:00.442Z,9.40
2017-09-21T06:49:27.938Z,9.50
2017-09-21T06:51:55.428Z,9.50
2017-09-21T06:54:22.934Z,9.70
2017-09-21T06:56:50.422Z,9.90
2017-09-21T06:59:17.935Z,10.00
2017-09-21T07:01:45.446Z,10.00
2017-09-21T07:04:13.354Z,10.00
2017-09-21T07:06:40.869Z,10.00
2017-09-21T07:09:08.378Z,9.90
2017-09-21T07:11:35.875Z,10.10
2017-09-21T07:14:03.831Z,10.30
2017-09-21T07:16:31.753Z,10.40
2017-09-21T07:18:59.268Z,10.40
2017-09-21T07:21:27.146Z,10.30
2017-09-21T07:23:55.036Z,10.20
2017-09-21T07:26:22.554Z,10.20
2017-09-21T07:28:50.434Z,10.40
2017-09-21T07:31:18.354Z,10.40
2017-09-21T07:33:45.859Z,10.40
2017-09-21T07:36:13.388Z,10.50
2017-09-21T07:38:40.896Z,10.60
2017-09-21T07:41:08.387Z,10.70
2017-09-21T07:43:35.916Z,10.80
2017-09-21T07:46:03.434Z,10.70
2017-09-21T07:48:30.958Z,10.60
2017-09-21T07:50:59.460Z,10.70
2017-09-21T07:53:26.978Z,10.80
2017-09-21T07:55:54.467Z,10.90
2017-09-21T07:58:21.982Z,11.00
2017-09-21T08:00:49.479Z,11.00
2017-09-21T08:03:18.918Z,11.00
2017-09-21T08:05:48.745Z,11.10
2017-09-21T08:08:16.265Z,11.10
2017-09-21T08:10:43.783Z,11.10
2017-09-21T08:13:11.299Z,11.10
2017-09-21T08:15:39.189Z,11.30
2017-09-21T08:18:06.698Z,11.30
2017-09-21T08:20:34.186Z,11.40
2017-09-21T08:23:03.008Z,11.60
2017-09-21T08:25:30.517Z,11.60
2017-09-21T08:27:58.025Z,11.60
2017-09-21T08:30:25.514Z,11.60
2017-09-21T08:32:53.014Z,11.50
2017-09-21T08:35:20.490Z,11.50
2017-09-21T08:37:49.929Z,11.40
2017-09-21T08:40:17.422Z,11.40
2017-09-21T08:42:45.297Z,11.50
2017-09-21T08:45:13.810Z,11.50
2017-09-21T08:47:41.344Z,11.50
2017-09-21T08:50:08.855Z,11.50
2017-09-21T08:52:36.358Z,11.50
2017-09-21T08:55:03.857Z,11.60
2017-09-21T08:57:31.353Z,11.70
2017-09-21T09:00:00.181Z,12.00
2017-09-21T09:02:27.677Z,12.00
2017-09-21T09:04:55.178Z,12.10
2017-09-21T09:07:22.697Z,12.10
2017-09-21T09:09:50.185Z,12.30
2017-09-21T09:12:17.685Z,12.40
2017-09-21T09:14:45.934Z,12.30
2017-09-21T09:17:14.138Z,12.30
2017-09-21T09:19:41.626Z,12.40
2017-09-21T09:22:10.278Z,12.70
2017-09-21T09:24:37.807Z,12.70
2017-09-21T09:27:06.267Z,12.60
2017-09-21T09:29:33.805Z,12.60
2017-09-21T09:32:01.686Z,12.90
2017-09-21T09:34:29.197Z,12.90
2017-09-21T09:36:56.702Z,12.70
2017-09-21T09:39:25.170Z,12.80
2017-09-21T09:41:53.059Z,13.40
2017-09-21T09:44:20.573Z,13.40
2017-09-21T09:46:48.079Z,13.50
2017-09-21T09:49:16.518Z,13.70
2017-09-21T09:51:44.014Z,13.80
2017-09-21T09:54:11.519Z,14.00
2017-09-21T09:56:39.025Z,14.10
2017-09-21T09:59:06.515Z,14.20
2017-09-21T10:04:07.905Z,14.20
2017-09-21T10:06:35.966Z,14.30
2017-09-21T10:09:03.479Z,14.40
2017-09-21T10:11:30.987Z,14.60
2017-09-21T10:13:59.411Z,14.50
2017-09-21T10:16:26.951Z,14.40
2017-09-21T10:18:56.482Z,14.20
2017-09-21T10:21:24.021Z,13.90
2017-09-21T10:23:51.538Z,13.80
2017-09-21T10:26:19.038Z,14.00
2017-09-21T10:28:46.859Z,14.20
2017-09-21T10:31:14.354Z,14.10
2017-09-21T10:33:41.936Z,14.10
2017-09-21T10:36:11.406Z,14.10
2017-09-21T10:38:38.893Z,14.10
2017-09-21T10:41:07.349Z,14.10
2017-09-21T10:43:34.875Z,14.30
2017-09-21T10:46:02.371Z,14.30
2017-09-21T10:48:31.797Z,14.30
2017-09-21T10:50:59.284Z,14.30
2017-09-21T10:53:26.769Z,14.30
2017-09-21T10:55:56.220Z,14.30
2017-09-21T10:58:23.738Z,14.50
2017-09-21T11:00:51.626Z,14.60
2017-09-21T11:03:19.158Z,14.50
2017-09-21T11:05:47.079Z,14.40
2017-09-21T11:08:14.591Z,14.40
2017-09-21T11:10:42.525Z,14.50
2017-09-21T11:13:10.018Z,14.50
2017-09-21T11:15:37.933Z,14.40
2017-09-21T11:18:05.670Z,14.40
2017-09-21T11:20:33.187Z,14.40
2017-09-21T11:23:00.783Z,14.60
2017-09-21T11:25:28.291Z,14.70
2017-09-21T11:27:55.814Z,14.80
2017-09-21T11:30:23.326Z,15.00
2017-09-21T11:32:51.237Z,15.10
2017-09-21T11:35:18.754Z,15.10
2017-09-21T11:37:46.750Z,15.10
2017-09-21T11:40:14.237Z,15.10
2017-09-21T11:42:41.750Z,15.10
2017-09-21T11:45:09.270Z,15.20
2017-09-21T11:47:38.734Z,15.20
2017-09-21T11:50:06.256Z,15.20
2017-09-21T11:52:33.755Z,15.40
2017-09-21T11:55:01.313Z,15.40
2017-09-21T11:57:28.826Z,15.50
2017-09-21T11:59:56.727Z,15.50
2017-09-21T12:02:24.246Z,15.50
2017-09-21T12:04:51.737Z,15.50
2017-09-21T12:07:21.259Z,15.50
2017-09-21T12:09:48.758Z,15.50
2017-09-21T12:12:16.289Z,15.60
2017-09-21T12:14:43.801Z,15.70
2017-09-21T12:17:12.252Z,15.70
2017-09-21T12:19:40.072Z,15.80
2017-09-21T12:22:07.626Z,15.80
2017-09-21T12:24:35.126Z,15.90
2017-09-21T12:27:02.658Z,15.90
2017-09-21T12:29:30.156Z,16.00
2017-09-21T12:31:59.002Z,16.00
2017-09-21T12:34:26.531Z,16.00
2017-09-21T12:36:54.066Z,16.10
2017-09-21T12:39:22.503Z,16.20
2017-09-21T12:41:50.014Z,16.20
2017-09-21T12:44:17.917Z,16.20
2017-09-21T12:46:46.611Z,16.20
2017-09-21T12:49:14.160Z,16.20
2017-09-21T12:51:41.718Z,16.20
2017-09-21T12:54:09.239Z,16.40
2017-09-21T12:56:37.151Z,16.50
2017-09-21T12:59:04.638Z,16.50
2017-09-21T13:01:32.190Z,16.50
2017-09-21T13:03:59.681Z,16.50
2017-09-21T13:06:27.578Z,16.70
2017-09-21T13:08:56.635Z,16.70
2017-09-21T13:11:24.126Z,16.80
2017-09-21T13:13:52.858Z,16.80
2017-09-21T13:16:20.378Z,16.80
2017-09-21T13:18:49.718Z,16.90
2017-09-21T13:21:17.246Z,16.80
2017-09-21T13:23:44.735Z,16.80
2017-09-21T13:26:12.258Z,16.80
2017-09-21T13:28:39.751Z,16.80
2017-09-21T13:31:07.919Z,16.80
2017-09-21T13:33:35.435Z,16.90
2017-09-21T13:36:02.957Z,16.90
2017-09-21T13:38:30.863Z,17.10
2017-09-21T13:40:58.367Z,17.10
2017-09-21T13:43:25.861Z,17.20
2017-09-21T13:45:53.361Z,17.20
2017-09-21T13:48:20.863Z,17.20
2017-09-21T13:50:48.736Z,17.30
2017-09-21T13:53:16.250Z,17.30
2017-09-21T13:55:43.761Z,17.30
2017-09-21T13:58:11.262Z,17.30
2017-09-21T14:00:40.732Z,17.30
2017-09-21T14:03:08.210Z,17.30
2017-09-21T14:05:35.716Z,17.30
2017-09-21T14:08:03.599Z,17.60
2017-09-21T14:10:32.081Z,17.60
2017-09-21T14:12:59.621Z,17.70
2017-09-21T14:15:27.542Z,17.70
2017-09-21T14:17:55.078Z,17.70
2017-09-21T14:20:23.463Z,17.70
2017-09-21T14:22:56.311Z,17.60
2017-09-21T14:25:24.213Z,17.60
2017-09-21T14:27:55.663Z,17.60
2017-09-21T14:30:23.945Z,17.60
2017-09-21T14:32:52.450Z,17.60
2017-09-21T14:35:19.922Z,17.60
2017-09-21T14:37:47.414Z,17.70
2017-09-21T14:40:14.915Z,17.80
2017-09-21T14:42:42.427Z,17.80
2017-09-21T14:45:09.907Z,17.70
2017-09-21T14:47:37.415Z,17.80
2017-09-21T14:50:05.311Z,17.70
2017-09-21T14:52:32.817Z,17.70
2017-09-21T14:55:00.305Z,17.80
2017-09-21T14:57:28.958Z,17.80
2017-09-21T14:59:56.503Z,17.80
2017-09-21T15:02:26.595Z,17.80
2017-09-21T15:04:54.957Z,17.80
2017-09-21T15:07:22.489Z,17.90
2017-09-21T15:09:50.086Z,17.80
2017-09-21T15:12:19.101Z,17.70
2017-09-21T15:14:46.584Z,17.70
2017-09-21T15:17:14.890Z,17.60
2017-09-21T15:19:42.814Z,17.60
2017-09-21T15:22:10.316Z,17.60
2017-09-21T15:24:37.791Z,17.60
2017-09-21T15:27:05.286Z,17.60
2017-09-21T15:29:34.390Z,17.50
2017-09-21T15:32:01.979Z,17.50
2017-09-21T15:34:31.881Z,17.40
2017-09-21T15:36:59.774Z,17.40
2017-09-21T15:39:29.671Z,17.40
2017-09-21T15:41:57.574Z,17.40
2017-09-21T15:44:25.055Z,17.40
2017-09-21T15:46:53.405Z,17.40
2017-09-21T15:49:20.882Z,17.40
2017-09-21T15:51:49.310Z,17.30
2017-09-21T15:54:19.963Z,17.20
2017-09-21T15:56:51.697Z,17.30
2017-09-21T15:59:19.570Z,17.10
2017-09-21T16:01:47.485Z,17.10
2017-09-21T16:04:14.963Z,17.10
2017-09-21T16:06:42.494Z,17.20
2017-09-21T16:09:11.450Z,17.30
2017-09-21T16:11:39.340Z,17.20
2017-09-21T16:14:07.886Z,17.20
2017-09-21T16:16:35.802Z,17.00
2017-09-21T16:19:04.097Z,17.00
2017-09-21T16:21:31.585Z,16.90
2017-09-21T16:23:59.495Z,17.10
2017-09-21T16:26:27.040Z,17.10
2017-09-21T16:28:54.539Z,17.20
2017-09-21T16:31:23.797Z,17.20
2017-09-21T16:33:52.087Z,17.10
2017-09-21T16:36:21.647Z,16.90
2017-09-21T16:38:50.494Z,16.60
2017-09-21T16:41:18.738Z,16.60
2017-09-21T16:43:46.839Z,16.50
2017-09-21T16:46:15.224Z,16.40
2017-09-21T16:48:42.707Z,16.20
2017-09-21T16:51:10.198Z,16.10
2017-09-21T16:53:37.721Z,15.90
2017-09-21T16:56:06.107Z,15.90
2017-09-21T16:58:34.102Z,15.60
2017-09-21T17:01:01.660Z,15.60
2017-09-21T17:03:30.214Z,15.50
2017-09-21T17:05:59.038Z,15.30
2017-09-21T17:08:26.529Z,15.30
2017-09-21T17:10:54.910Z,15.20
2017-09-21T17:13:23.680Z,15.10
2017-09-21T17:15:51.208Z,15.00
2017-09-21T17:18:21.865Z,14.80
2017-09-21T17:20:54.473Z,14.70
2017-09-21T17:23:21.974Z,14.70
2017-09-21T17:25:49.502Z,14.50
2017-09-21T17:28:17.927Z,14.40
2017-09-21T17:30:45.446Z,14.30
2017-09-21T17:33:13.344Z,14.10
2017-09-21T17:35:42.013Z,14.10
2017-09-21T17:38:09.530Z,14.10
2017-09-21T17:40:37.032Z,14.00
2017-09-21T17:43:04.535Z,14.00
2017-09-21T17:45:32.053Z,13.80
2017-09-21T17:47:59.567Z,13.60
2017-09-21T17:50:27.062Z,13.50
2017-09-21T17:52:54.639Z,13.30
2017-09-21T17:55:24.094Z,13.20
2017-09-21T17:57:51.582Z,13.20
2017-09-21T18:00:19.115Z,13.10
2017-09-21T18:02:47.869Z,12.90
2017-09-21T18:05:15.569Z,12.90
2017-09-21T18:07:44.738Z,12.90
2017-09-21T18:10:14.346Z,13.00
2017-09-21T18:12:42.871Z,13.00
2017-09-21T18:15:13.152Z,12.90
2017-09-21T18:17:40.740Z,12.90
2017-09-21T18:20:08.345Z,12.80
2017-09-21T18:22:37.188Z,12.70
2017-09-21T18:25:05.652Z,12.50
2017-09-21T18:27:33.592Z,12.40
2017-09-21T18:30:01.111Z,12.50
2017-09-21T18:32:35.686Z,12.40
2017-09-21T18:35:03.285Z,12.40
2017-09-21T18:37:30.877Z,12.50
2017-09-21T18:39:58.511Z,12.50
2017-09-21T18:42:27.747Z,12.40
2017-09-21T18:44:56.319Z,12.30
2017-09-21T18:47:23.889Z,12.20
2017-09-21T18:49:51.448Z,12.20
2017-09-21T18:52:19.980Z,12.10
2017-09-21T18:54:48.443Z,12.00
2017-09-21T18:57:16.958Z,12.00
2017-09-21T19:02:22.682Z,11.90
2017-09-21T19:04:50.309Z,11.90
2017-09-21T19:07:19.245Z,11.90
2017-09-21T19:09:47.878Z,11.80
2017-09-21T19:12:16.190Z,11.80
2017-09-21T19:14:45.594Z,11.80
2017-09-21T19:17:14.940Z,11.80
2017-09-21T19:19:46.259Z,11.70
2017-09-21T19:22:21.087Z,11.70
2017-09-21T19:24:57.485Z,11.60
2017-09-21T19:27:29.612Z,11.80
2017-09-21T19:30:02.164Z,11.60
2017-09-21T19:32:31.553Z,11.50
2017-09-21T19:35:00.837Z,11.50
2017-09-21T19:37:28.951Z,11.50
2017-09-21T19:40:02.667Z,11.50
2017-09-21T19:42:30.650Z,11.80
2017-09-21T19:45:00.097Z,11.80
2017-09-21T19:47:28.670Z,12.00
2017-09-21T19:49:57.647Z,12.30
2017-09-21T19:52:25.250Z,12.50
2017-09-21T19:54:55.732Z,12.50
2017-09-21T19:57:25.580Z,12.60
2017-09-21T19:59:53.997Z,12.50
2017-09-21T20:02:21.638Z,12.30
2017-09-21T20:04:49.239Z,12.10
2017-09-21T20:07:16.829Z,11.80
2017-09-21T20:09:55.032Z,11.60
2017-09-21T20:12:27.196Z,11.50
2017-09-21T20:14:55.294Z,11.30
2017-09-21T20:17:25.956Z,11.20
2017-09-21T20:19:57.503Z,11.00
2017-09-21T20:26:08.011Z,10.90
2017-09-21T20:28:35.757Z,10.80
2017-09-21T20:31:03.308Z,10.70
2017-09-21T20:33:33.351Z,10.70
2017-09-21T20:41:10.078Z,10.60
2017-09-21T20:43:39.157Z,10.50
2017-09-21T20:46:08.719Z,10.50
2017-09-21T20:48:37.135Z,10.50
2017-09-21T20:51:07.813Z,10.50
2017-09-21T20:53:36.310Z,10.40
2017-09-21T20:56:06.039Z,10.40
2017-09-21T20:58:35.651Z,10.30
2017-09-21T21:01:04.238Z,10.30
2017-09-21T21:03:32.449Z,10.20
2017-09-21T21:06:00.450Z,10.20
2017-09-21T21:08:28.687Z,10.20
2017-09-21T21:10:56.216Z,10.20
2017-09-21T21:13:26.520Z,10.10
2017-09-21T21:15:55.000Z,10.10
2017-09-21T21:18:22.633Z,10.10
2017-09-21T21:20:50.195Z,10.20
2017-09-21T21:23:17.892Z,10.20
2017-09-21T21:25:46.463Z,10.20
2017-09-21T21:28:14.473Z,10.10
2017-09-21T21:30:42.176Z,10.10
2017-09-21T21:33:09.802Z,10.10
2017-09-21T21:35:39.382Z,10.20
2017-09-21T21:38:10.276Z,10.10
2017-09-21T21:40:39.556Z,10.10
2017-09-21T21:43:07.121Z,10.10
2017-09-21T21:45:36.323Z,10.10
2017-09-21T21:48:05.541Z,10.10
2017-09-21T21:50:34.308Z,10.00
2017-09-21T21:53:02.003Z,10.00
2017-09-21T21:55:30.004Z,10.00
2017-09-21T21:57:59.970Z,10.00
2017-09-21T22:00:29.894Z,9.90
2017-09-21T22:03:01.706Z,9.90
2017-09-21T22:05:30.221Z,9.90
2017-09-21T22:07:57.815Z,9.90
2017-09-21T22:10:26.258Z,9.90
2017-09-21T22:12:54.026Z,9.90
2017-09-21T22:15:24.440Z,9.90
2017-09-21T22:17:52.032Z,9.80
2017-09-21T22:20:20.100Z,9.70
2017-09-21T22:22:53.975Z,9.70
2017-09-21T22:25:21.574Z,9.70
2017-09-21T22:27:50.050Z,9.70
2017-09-21T22:30:18.063Z,9.60
2017-09-21T22:32:45.721Z,9.60
2017-09-21T22:35:14.206Z,9.60
2017-09-21T22:37:41.788Z,9.80
2017-09-21T22:40:09.277Z,10.10
2017-09-21T22:42:37.195Z,10.60
2017-09-21T22:45:05.078Z,10.60
2017-09-21T22:47:33.075Z,10.70
2017-09-21T22:50:02.754Z,10.90
2017-09-21T22:52:35.583Z,10.90
2017-09-21T22:55:03.071Z,10.90
2017-09-21T22:57:30.553Z,10.80
2017-09-21T22:59:58.111Z,11.00
2017-09-21T23:02:31.241Z,11.00
2017-09-21T23:04:58.808Z,11.10
2017-09-21T23:07:26.334Z,11.10
2017-09-21T23:09:53.851Z,11.00
2017-09-21T23:12:21.349Z,10.90
2017-09-21T23:14:49.253Z,10.70
2017-09-21T23:17:16.757Z,10.80
2017-09-21T23:19:45.227Z,10.90
2017-09-21T23:22:12.744Z,10.90
2017-09-21T23:24:40.443Z,10.90
2017-09-21T23:27:07.946Z,10.80
2017-09-21T23:29:35.876Z,10.70
2017-09-21T23:32:05.338Z,10.70
2017-09-21T23:34:32.822Z,10.50
2017-09-21T23:37:00.333Z,10.30
2017-09-21T23:39:28.235Z,10.10
2017-09-21T23:41:57.574Z,10.10
2017-09-21T23:44:25.058Z,10.20
2017-09-21T23:46:53.702Z,9.90
2017-09-21T23:49:23.202Z,9.90
2017-09-21T23:51:50.697Z,9.70
2017-09-21T23:54:18.599Z,9.60
2017-09-21T23:56:48.387Z,9.70
2017-09-21T23:59:16.274Z,9.80
